createdAt,value
2017-09-03T00:01:25.868Z,86.30
2017-09-03T00:03:54.148Z,86.30
2017-09-03T00:06:22.454Z,85.90
2017-09-03T00:08:50.729Z,86.60
2017-09-03T00:11:19.005Z,86.20
2017-09-03T00:13:47.292Z,86.50
2017-09-03T00:16:15.565Z,86.50
2017-09-03T00:18:44.665Z,86.40
2017-09-03T00:21:12.945Z,86.40
2017-09-03T00:23:41.218Z,86.80
2017-09-03T00:26:09.518Z,87.10
2017-09-03T00:28:37.787Z,87.30
2017-09-03T00:31:06.096Z,87.20
2017-09-03T00:33:34.376Z,87.50
2017-09-03T00:36:02.638Z,87.30
2017-09-03T00:38:30.928Z,87.30
2017-09-03T00:40:59.211Z,87.50
2017-09-03T00:43:27.520Z,87.60
2017-09-03T00:45:55.808Z,87.60
2017-09-03T00:48:24.101Z,87.90
2017-09-03T00:50:52.388Z,87.60
2017-09-03T00:53:20.660Z,87.40
2017-09-03T00:55:48.975Z,88.10
2017-09-03T00:58:17.242Z,88.00
2017-09-03T01:00:45.516Z,87.10
2017-09-03T01:03:13.800Z,87.30
2017-09-03T01:05:42.258Z,87.30
2017-09-03T01:08:10.562Z,87.60
2017-09-03T01:10:38.834Z,87.60
2017-09-03T01:13:07.103Z,87.70
2017-09-03T01:15:35.394Z,88.10
2017-09-03T01:18:03.941Z,87.50
2017-09-03T01:20:33.020Z,87.90
2017-09-03T01:23:02.043Z,87.70
2017-09-03T01:25:30.329Z,87.60
2017-09-03T01:27:58.634Z,87.50
2017-09-03T01:30:26.928Z,87.40
2017-09-03T01:32:55.539Z,87.20
2017-09-03T01:35:23.816Z,87.10
2017-09-03T01:37:52.092Z,87.30
2017-09-03T01:40:20.396Z,87.20
2017-09-03T01:42:48.672Z,87.60
2017-09-03T01:45:17.864Z,87.80
2017-09-03T01:47:46.136Z,87.80
2017-09-03T01:50:14.432Z,87.90
2017-09-03T01:52:42.718Z,88.00
2017-09-03T01:55:10.983Z,87.90
2017-09-03T01:57:39.479Z,87.70
2017-09-03T02:00:07.755Z,87.20
2017-09-03T02:02:36.027Z,87.40
2017-09-03T02:05:04.308Z,87.60
2017-09-03T02:07:32.579Z,87.50
2017-09-03T02:10:00.903Z,87.70
2017-09-03T02:12:29.180Z,87.50
2017-09-03T02:14:57.461Z,87.10
2017-09-03T02:17:25.739Z,86.90
2017-09-03T02:19:54.012Z,87.30
2017-09-03T02:22:22.317Z,87.10
2017-09-03T02:24:50.585Z,86.40
2017-09-03T02:27:18.851Z,86.40
2017-09-03T02:29:47.136Z,86.20
2017-09-03T02:32:15.412Z,86.50
2017-09-03T02:34:43.736Z,86.00
2017-09-03T02:37:11.996Z,85.20
2017-09-03T02:39:40.277Z,85.50
2017-09-03T02:42:08.573Z,85.50
2017-09-03T02:44:36.836Z,86.20
2017-09-03T02:47:05.136Z,85.50
2017-09-03T02:49:33.420Z,85.30
2017-09-03T02:52:01.688Z,86.40
2017-09-03T02:54:29.972Z,86.40
2017-09-03T02:56:58.277Z,85.70
2017-09-03T02:59:26.572Z,86.40
2017-09-03T03:01:54.848Z,87.30
2017-09-03T03:04:23.123Z,86.90
2017-09-03T03:06:51.407Z,87.30
2017-09-03T03:09:19.676Z,87.40
2017-09-03T03:11:47.983Z,87.50
2017-09-03T03:14:16.260Z,88.20
2017-09-03T03:16:44.524Z,88.40
2017-09-03T03:19:12.816Z,88.60
2017-09-03T03:21:41.076Z,88.90
2017-09-03T03:24:09.411Z,88.90
2017-09-03T03:26:37.688Z,88.60
2017-09-03T03:29:06.728Z,88.40
2017-09-03T03:31:35.016Z,88.30
2017-09-03T03:34:03.284Z,88.30
2017-09-03T03:36:31.621Z,88.30
2017-09-03T03:38:59.890Z,88.30
2017-09-03T03:41:28.272Z,89.30
2017-09-03T03:43:56.547Z,89.30
2017-09-03T03:46:24.824Z,89.30
2017-09-03T03:48:53.141Z,87.90
2017-09-03T03:51:21.420Z,88.90
2017-09-03T03:53:49.664Z,89.00
2017-09-03T03:56:17.940Z,89.10
2017-09-03T03:58:46.988Z,88.60
2017-09-03T04:01:15.296Z,88.50
2017-09-03T04:03:43.565Z,88.20
2017-09-03T04:06:12.594Z,87.40
2017-09-03T04:08:40.867Z,88.40
2017-09-03T04:11:09.148Z,89.00
2017-09-03T04:13:37.458Z,88.40
2017-09-03T04:16:05.736Z,90.10
2017-09-03T04:18:34.011Z,88.90
2017-09-03T04:21:02.297Z,88.60
2017-09-03T04:23:31.332Z,87.20
2017-09-03T04:25:59.662Z,87.00
2017-09-03T04:28:27.916Z,87.50
2017-09-03T04:30:56.195Z,87.60
2017-09-03T04:33:24.484Z,87.70
2017-09-03T04:35:52.747Z,87.70
2017-09-03T04:38:21.055Z,88.00
2017-09-03T04:40:49.340Z,87.90
2017-09-03T04:43:17.608Z,88.80
2017-09-03T04:45:45.886Z,86.60
2017-09-03T04:48:14.223Z,85.80
2017-09-03T04:50:42.527Z,85.60
2017-09-03T04:53:10.808Z,85.00
2017-09-03T04:55:39.084Z,84.10
2017-09-03T04:58:07.385Z,84.00
2017-09-03T05:00:35.903Z,84.50
2017-09-03T05:03:04.215Z,84.10
2017-09-03T05:05:32.496Z,85.00
2017-09-03T05:08:00.772Z,85.80
2017-09-03T05:10:29.068Z,86.30
2017-09-03T05:12:57.335Z,86.30
2017-09-03T05:15:25.653Z,86.50
2017-09-03T05:17:53.917Z,84.60
2017-09-03T05:20:22.202Z,84.40
2017-09-03T05:22:50.477Z,84.30
2017-09-03T05:25:18.757Z,84.20
2017-09-03T05:27:47.084Z,85.30
2017-09-03T05:30:15.364Z,85.70
2017-09-03T05:32:43.636Z,86.10
2017-09-03T05:35:11.939Z,86.10
2017-09-03T05:37:40.222Z,86.20
2017-09-03T05:40:08.562Z,86.00
2017-09-03T05:42:36.828Z,84.90
2017-09-03T05:45:05.105Z,84.20
2017-09-03T05:47:33.407Z,84.60
2017-09-03T05:50:01.684Z,85.00
2017-09-03T05:52:30.265Z,85.20
2017-09-03T05:54:58.544Z,83.80
2017-09-03T05:57:26.824Z,85.00
2017-09-03T05:59:55.119Z,85.40
2017-09-03T06:02:23.405Z,86.00
2017-09-03T06:04:51.726Z,86.00
2017-09-03T06:07:20.008Z,86.60
2017-09-03T06:09:48.311Z,85.80
2017-09-03T06:12:16.624Z,83.80
2017-09-03T06:14:44.913Z,82.70
2017-09-03T06:17:13.219Z,81.00
2017-09-03T06:19:41.492Z,82.60
2017-09-03T06:22:09.763Z,81.30
2017-09-03T06:24:38.057Z,81.50
2017-09-03T06:27:06.342Z,82.60
2017-09-03T06:29:34.689Z,82.60
2017-09-03T06:32:02.977Z,82.70
2017-09-03T06:34:31.246Z,82.60
2017-09-03T06:36:59.548Z,81.60
2017-09-03T06:39:27.824Z,81.60
2017-09-03T06:41:56.128Z,82.10
2017-09-03T06:44:24.403Z,82.80
2017-09-03T06:46:53.446Z,80.80
2017-09-03T06:49:21.727Z,80.70
2017-09-03T06:51:50.771Z,80.50
2017-09-03T06:54:19.093Z,80.30
2017-09-03T06:56:47.368Z,80.60
2017-09-03T06:59:15.874Z,80.50
2017-09-03T07:01:44.178Z,81.50
2017-09-03T07:04:12.458Z,79.80
2017-09-03T07:06:40.775Z,80.10
2017-09-03T07:09:09.040Z,78.20
2017-09-03T07:11:37.327Z,78.40
2017-09-03T07:14:05.916Z,80.10
2017-09-03T07:16:34.182Z,79.40
2017-09-03T07:19:02.497Z,77.90
2017-09-03T07:21:30.782Z,78.50
2017-09-03T07:23:59.056Z,79.60
2017-09-03T07:26:27.356Z,80.40
2017-09-03T07:28:55.631Z,80.40
2017-09-03T07:31:24.729Z,79.20
2017-09-03T07:33:53.005Z,77.90
2017-09-03T07:36:21.273Z,78.60
2017-09-03T07:38:49.568Z,78.00
2017-09-03T07:41:17.843Z,76.80
2017-09-03T07:43:46.161Z,76.00
2017-09-03T07:46:14.452Z,78.50
2017-09-03T07:48:42.732Z,77.80
2017-09-03T07:51:11.019Z,78.60
2017-09-03T07:53:39.309Z,78.60
2017-09-03T07:56:07.623Z,77.10
2017-09-03T07:58:35.897Z,76.20
2017-09-03T08:01:04.173Z,74.80
2017-09-03T08:03:32.475Z,74.40
2017-09-03T08:06:00.740Z,73.20
2017-09-03T08:08:29.043Z,75.00
2017-09-03T08:10:57.320Z,75.00
2017-09-03T08:13:25.584Z,73.60
2017-09-03T08:15:53.875Z,74.00
2017-09-03T08:18:22.144Z,73.50
2017-09-03T08:20:50.639Z,73.50
2017-09-03T08:23:18.907Z,71.90
2017-09-03T08:25:47.201Z,71.60
2017-09-03T08:28:15.481Z,70.20
2017-09-03T08:30:43.756Z,71.10
2017-09-03T08:33:12.152Z,71.60
2017-09-03T08:35:41.214Z,72.50
2017-09-03T08:38:09.481Z,72.50
2017-09-03T08:40:37.777Z,71.40
2017-09-03T08:43:06.044Z,70.70
2017-09-03T08:45:34.368Z,69.90
2017-09-03T08:48:02.887Z,68.20
2017-09-03T08:50:31.159Z,67.40
2017-09-03T08:52:59.448Z,69.70
2017-09-03T08:55:27.716Z,69.90
2017-09-03T08:57:56.017Z,68.00
2017-09-03T09:00:25.056Z,65.40
2017-09-03T09:02:53.324Z,66.00
2017-09-03T09:05:21.627Z,66.40
2017-09-03T09:07:49.887Z,62.40
2017-09-03T09:10:18.321Z,62.00
2017-09-03T09:12:46.593Z,62.10
2017-09-03T09:15:14.862Z,60.90
2017-09-03T09:17:43.184Z,59.80
2017-09-03T09:20:11.476Z,59.80
2017-09-03T09:22:39.805Z,59.10
2017-09-03T09:25:08.092Z,64.10
2017-09-03T09:27:36.361Z,60.10
2017-09-03T09:30:04.649Z,58.10
2017-09-03T09:32:32.929Z,57.20
2017-09-03T09:35:01.256Z,59.00
2017-09-03T09:37:29.512Z,59.20
2017-09-03T09:39:57.817Z,57.10
2017-09-03T09:42:26.095Z,57.00
2017-09-03T09:44:54.368Z,57.70
2017-09-03T09:47:22.792Z,56.40
2017-09-03T09:49:51.093Z,55.90
2017-09-03T09:52:19.363Z,55.70
2017-09-03T09:54:47.664Z,56.00
2017-09-03T09:57:15.945Z,57.00
2017-09-03T09:59:44.384Z,55.50
2017-09-03T10:02:12.761Z,55.20
2017-09-03T10:04:41.064Z,53.00
2017-09-03T10:07:09.364Z,54.00
2017-09-03T10:09:38.412Z,54.60
2017-09-03T10:12:06.731Z,54.50
2017-09-03T10:14:35.010Z,54.50
2017-09-03T10:17:03.279Z,53.30
2017-09-03T10:19:31.568Z,51.90
2017-09-03T10:21:59.837Z,51.80
2017-09-03T10:24:28.147Z,50.70
2017-09-03T10:26:56.414Z,53.60
2017-09-03T10:29:24.679Z,51.60
2017-09-03T10:31:53.221Z,52.40
2017-09-03T10:34:21.501Z,51.90
2017-09-03T10:36:49.829Z,48.40
2017-09-03T10:39:18.104Z,51.10
2017-09-03T10:41:46.376Z,46.80
2017-09-03T10:44:14.665Z,47.40
2017-09-03T10:46:42.946Z,46.80
2017-09-03T10:49:11.341Z,45.40
2017-09-03T10:51:39.629Z,46.90
2017-09-03T10:54:07.904Z,46.20
2017-09-03T10:56:36.211Z,45.40
2017-09-03T10:59:04.486Z,45.60
2017-09-03T11:01:32.805Z,46.00
2017-09-03T11:04:01.081Z,44.10
2017-09-03T11:06:29.355Z,46.20
2017-09-03T11:08:57.652Z,43.40
2017-09-03T11:11:25.937Z,42.90
2017-09-03T11:13:54.269Z,42.30
2017-09-03T11:16:22.526Z,44.60
2017-09-03T11:18:50.793Z,43.90
2017-09-03T11:21:19.095Z,44.00
2017-09-03T11:23:47.371Z,43.10
2017-09-03T11:26:15.673Z,42.80
2017-09-03T11:28:43.952Z,43.40
2017-09-03T11:31:12.244Z,44.20
2017-09-03T11:33:40.562Z,41.60
2017-09-03T11:36:08.831Z,44.50
2017-09-03T11:38:37.347Z,44.30
2017-09-03T11:41:05.617Z,44.70
2017-09-03T11:43:33.888Z,43.80
2017-09-03T11:46:02.181Z,42.40
2017-09-03T11:48:30.475Z,44.70
2017-09-03T11:50:58.804Z,43.30
2017-09-03T11:53:27.083Z,41.20
2017-09-03T11:55:55.360Z,41.90
2017-09-03T11:58:23.646Z,39.70
2017-09-03T12:00:51.922Z,40.40
2017-09-03T12:03:20.236Z,41.50
2017-09-03T12:05:48.515Z,42.70
2017-09-03T12:08:16.798Z,44.10
2017-09-03T12:10:45.075Z,41.90
2017-09-03T12:13:13.361Z,41.70
2017-09-03T12:15:41.664Z,42.30
2017-09-03T12:18:09.940Z,44.30
2017-09-03T12:20:38.996Z,38.10
2017-09-03T12:23:07.292Z,38.10
2017-09-03T12:25:35.560Z,39.50
2017-09-03T12:28:03.847Z,39.60
2017-09-03T12:30:32.127Z,41.30
2017-09-03T12:33:00.456Z,42.60
2017-09-03T12:35:28.726Z,44.00
2017-09-03T12:37:57.000Z,43.70
2017-09-03T12:40:25.289Z,43.90
2017-09-03T12:42:53.559Z,43.90
2017-09-03T12:45:21.880Z,45.00
2017-09-03T12:47:50.159Z,43.90
2017-09-03T12:50:18.444Z,45.90
2017-09-03T12:52:46.760Z,44.20
2017-09-03T12:55:15.024Z,44.20
2017-09-03T12:57:43.371Z,42.80
2017-09-03T13:00:11.641Z,44.00
2017-09-03T13:02:40.016Z,43.50
2017-09-03T13:05:08.305Z,44.00
2017-09-03T13:07:36.611Z,46.10
2017-09-03T13:10:04.904Z,45.70
2017-09-03T13:12:33.177Z,46.40
2017-09-03T13:15:01.452Z,46.80
2017-09-03T13:17:29.737Z,43.70
2017-09-03T13:19:58.060Z,42.80
2017-09-03T13:22:26.340Z,41.20
2017-09-03T13:24:54.607Z,40.70
2017-09-03T13:27:22.916Z,41.90
2017-09-03T13:29:51.198Z,40.90
2017-09-03T13:32:19.513Z,41.40
2017-09-03T13:34:47.800Z,42.60
2017-09-03T13:37:16.072Z,42.80
2017-09-03T13:39:44.371Z,44.80
2017-09-03T13:42:12.645Z,45.50
2017-09-03T13:44:41.105Z,42.30
2017-09-03T13:47:09.391Z,42.90
2017-09-03T13:49:37.667Z,43.60
2017-09-03T13:52:05.952Z,41.60
2017-09-03T13:54:34.228Z,41.20
2017-09-03T13:57:02.716Z,40.40
2017-09-03T13:59:30.995Z,42.60
2017-09-03T14:01:59.292Z,38.70
2017-09-03T14:04:27.584Z,37.80
2017-09-03T14:06:55.992Z,36.90
2017-09-03T14:09:24.303Z,37.70
2017-09-03T14:11:52.577Z,36.60
2017-09-03T14:14:20.856Z,34.50
2017-09-03T14:16:49.163Z,35.30
2017-09-03T14:19:17.446Z,37.20
2017-09-03T14:21:45.744Z,37.40
2017-09-03T14:24:14.026Z,36.00
2017-09-03T14:26:42.361Z,35.10
2017-09-03T14:29:10.636Z,37.40
2017-09-03T14:31:38.912Z,37.70
2017-09-03T14:34:07.208Z,39.90
2017-09-03T14:36:35.563Z,42.50
2017-09-03T14:39:03.928Z,45.10
2017-09-03T14:41:32.191Z,47.70
2017-09-03T14:44:00.467Z,49.70
2017-09-03T14:46:28.748Z,52.20
2017-09-03T14:48:57.019Z,53.80
2017-09-03T14:51:25.326Z,54.70
2017-09-03T14:53:53.600Z,55.80
2017-09-03T14:56:21.872Z,57.20
2017-09-03T14:58:50.150Z,57.00
2017-09-03T15:01:18.429Z,59.00
2017-09-03T15:03:46.884Z,61.60
2017-09-03T15:06:15.148Z,55.60
2017-09-03T15:08:43.433Z,52.80
2017-09-03T15:11:11.716Z,51.10
2017-09-03T15:13:39.992Z,51.90
2017-09-03T15:16:08.301Z,47.20
2017-09-03T15:18:37.356Z,46.20
2017-09-03T15:21:05.628Z,45.50
2017-09-03T15:23:33.922Z,45.70
2017-09-03T15:26:02.215Z,48.60
2017-09-03T15:28:30.523Z,47.20
2017-09-03T15:30:58.804Z,47.40
2017-09-03T15:33:27.088Z,46.80
2017-09-03T15:35:55.392Z,46.10
2017-09-03T15:38:23.680Z,45.20
2017-09-03T15:40:52.740Z,48.60
2017-09-03T15:43:21.011Z,48.60
2017-09-03T15:45:49.291Z,50.10
2017-09-03T15:48:17.575Z,51.10
2017-09-03T15:50:45.859Z,50.50
2017-09-03T15:53:14.256Z,50.60
2017-09-03T15:55:42.536Z,51.60
2017-09-03T15:58:11.012Z,51.20
2017-09-03T16:00:39.301Z,51.00
2017-09-03T16:03:07.576Z,51.80
2017-09-03T16:05:35.856Z,51.30
2017-09-03T16:08:04.134Z,51.80
2017-09-03T16:10:33.208Z,55.70
2017-09-03T16:13:01.479Z,55.60
2017-09-03T16:15:29.764Z,57.70
2017-09-03T16:17:58.044Z,58.40
2017-09-03T16:20:26.316Z,56.90
2017-09-03T16:22:54.673Z,57.50
2017-09-03T16:25:22.939Z,56.10
2017-09-03T16:27:51.224Z,56.20
2017-09-03T16:30:19.519Z,56.80
2017-09-03T16:32:47.784Z,56.70
2017-09-03T16:35:16.091Z,55.20
2017-09-03T16:37:44.370Z,54.80
2017-09-03T16:40:12.640Z,56.10
2017-09-03T16:42:40.919Z,55.50
2017-09-03T16:45:09.210Z,56.40
2017-09-03T16:47:37.537Z,57.50
2017-09-03T16:50:05.793Z,59.40
2017-09-03T16:52:34.090Z,59.40
2017-09-03T16:55:02.381Z,57.80
2017-09-03T16:57:30.651Z,57.20
2017-09-03T16:59:58.948Z,59.80
2017-09-03T17:02:27.214Z,58.10
2017-09-03T17:04:55.544Z,59.20
2017-09-03T17:07:23.856Z,58.00
2017-09-03T17:09:52.119Z,55.10
2017-09-03T17:12:20.540Z,54.10
2017-09-03T17:14:48.824Z,54.20
2017-09-03T17:17:17.100Z,54.90
2017-09-03T17:19:45.389Z,54.90
2017-09-03T17:22:14.263Z,54.30
2017-09-03T17:24:42.547Z,54.30
2017-09-03T17:27:10.844Z,54.70
2017-09-03T17:29:39.131Z,55.30
2017-09-03T17:32:07.428Z,56.20
2017-09-03T17:34:53.456Z,57.00
2017-09-03T17:37:35.646Z,57.00
2017-09-03T17:40:14.783Z,56.80
2017-09-03T17:42:45.604Z,56.60
2017-09-03T17:45:13.917Z,58.00
2017-09-03T17:47:42.186Z,57.40
2017-09-03T17:50:10.467Z,57.70
2017-09-03T17:52:38.743Z,58.60
2017-09-03T17:55:07.028Z,57.80
2017-09-03T17:57:35.344Z,58.50
2017-09-03T18:00:03.616Z,58.50
2017-09-03T18:02:31.904Z,58.90
2017-09-03T18:05:00.996Z,58.30
2017-09-03T18:07:29.301Z,59.40
2017-09-03T18:09:57.623Z,60.00
2017-09-03T18:12:25.924Z,60.90
2017-09-03T18:14:54.187Z,61.60
2017-09-03T18:17:22.487Z,60.60
2017-09-03T18:19:50.764Z,61.50
2017-09-03T18:22:19.182Z,60.30
2017-09-03T18:24:47.452Z,61.20
2017-09-03T18:27:15.717Z,61.40
2017-09-03T18:29:54.764Z,61.60
2017-09-03T18:32:23.036Z,62.80
2017-09-03T18:34:51.347Z,63.60
2017-09-03T18:37:23.567Z,64.30
2017-09-03T18:39:53.108Z,65.20
2017-09-03T18:42:23.335Z,66.00
2017-09-03T18:44:51.640Z,65.00
2017-09-03T18:47:20.012Z,66.00
2017-09-03T18:53:05.628Z,66.70
2017-09-03T18:55:33.903Z,66.70
2017-09-03T18:58:02.794Z,66.70
2017-09-03T19:00:31.607Z,67.10
2017-09-03T19:03:03.717Z,68.30
2017-09-03T19:05:34.136Z,68.90
2017-09-03T19:08:02.412Z,70.80
2017-09-03T19:10:30.671Z,70.90
2017-09-03T19:12:58.972Z,72.20
2017-09-03T19:15:27.247Z,72.60
2017-09-03T19:17:55.548Z,73.90
2017-09-03T19:20:23.864Z,73.50
2017-09-03T19:22:52.230Z,74.30
2017-09-03T19:25:20.526Z,73.70
2017-09-03T19:27:48.787Z,73.80
2017-09-03T19:30:17.220Z,74.00
2017-09-03T19:32:45.496Z,75.30
2017-09-03T19:35:13.769Z,75.40
2017-09-03T19:37:42.792Z,75.30
2017-09-03T19:40:11.141Z,75.40
2017-09-03T19:42:39.420Z,75.80
2017-09-03T19:45:07.696Z,76.90
2017-09-03T19:47:35.990Z,76.90
2017-09-03T19:50:04.268Z,77.50
2017-09-03T19:52:32.586Z,76.00
2017-09-03T19:55:00.871Z,76.60
2017-09-03T19:57:29.132Z,76.00
2017-09-03T19:59:57.421Z,76.20
2017-09-03T20:02:25.691Z,76.80
2017-09-03T20:04:53.972Z,77.40
2017-09-03T20:07:22.235Z,77.60
2017-09-03T20:09:51.016Z,77.80
2017-09-03T20:12:19.289Z,78.60
2017-09-03T20:14:47.566Z,78.40
2017-09-03T20:17:15.861Z,78.50
2017-09-03T20:19:44.137Z,78.60
2017-09-03T20:22:12.443Z,78.10
2017-09-03T20:24:40.712Z,77.80
2017-09-03T20:27:08.992Z,78.10
2017-09-03T20:29:37.299Z,78.50
2017-09-03T20:32:05.568Z,79.60
2017-09-03T20:34:34.083Z,79.20
2017-09-03T20:37:02.365Z,79.20
2017-09-03T20:39:30.633Z,79.40
2017-09-03T20:41:58.913Z,80.00
2017-09-03T20:44:27.185Z,80.40
2017-09-03T20:46:55.691Z,79.70
2017-09-03T20:49:23.952Z,79.60
2017-09-03T20:51:52.224Z,79.60
2017-09-03T20:54:20.504Z,80.00
2017-09-03T20:56:48.771Z,80.20
2017-09-03T20:59:17.193Z,80.10
2017-09-03T21:01:45.484Z,80.10
2017-09-03T21:04:13.743Z,80.60
2017-09-03T21:06:42.064Z,80.30
2017-09-03T21:09:10.364Z,80.70
2017-09-03T21:11:38.803Z,81.10
2017-09-03T21:14:07.086Z,80.80
2017-09-03T21:16:35.356Z,80.00
2017-09-03T21:19:03.635Z,80.20
2017-09-03T21:21:31.916Z,81.00
2017-09-03T21:24:00.216Z,81.30
2017-09-03T21:26:28.490Z,81.20
2017-09-03T21:28:57.761Z,80.60
2017-09-03T21:31:26.035Z,80.60
2017-09-03T21:33:54.320Z,81.20
2017-09-03T21:36:22.622Z,82.60
2017-09-03T21:38:50.898Z,82.60
2017-09-03T21:41:19.247Z,82.60
2017-09-03T21:43:47.520Z,83.30
2017-09-03T21:46:15.795Z,82.40
2017-09-03T21:48:44.168Z,82.40
2017-09-03T21:51:12.494Z,82.40
2017-09-03T21:53:40.819Z,82.30
2017-09-03T21:56:09.083Z,82.20
2017-09-03T21:58:37.414Z,82.20
2017-09-03T22:01:05.720Z,83.20
2017-09-03T22:03:33.997Z,83.70
2017-09-03T22:06:02.309Z,83.60
2017-09-03T22:08:30.588Z,82.80
2017-09-03T22:10:58.866Z,82.30
2017-09-03T22:13:27.170Z,82.20
2017-09-03T22:15:55.442Z,82.60
2017-09-03T22:18:23.772Z,82.90
2017-09-03T22:20:52.033Z,83.00
2017-09-03T22:23:20.324Z,82.40
2017-09-03T22:25:48.648Z,83.00
2017-09-03T22:28:16.912Z,83.60
2017-09-03T22:30:45.215Z,83.40
2017-09-03T22:33:13.480Z,83.20
2017-09-03T22:35:41.768Z,83.50
2017-09-03T22:38:10.065Z,83.50
2017-09-03T22:40:38.324Z,83.50
2017-09-03T22:43:06.963Z,83.20
2017-09-03T22:45:35.236Z,82.70
2017-09-03T22:48:03.520Z,82.20
2017-09-03T22:50:31.804Z,81.80
2017-09-03T22:53:00.072Z,82.50
2017-09-03T22:55:28.391Z,83.10
2017-09-03T22:57:56.668Z,83.00
2017-09-03T23:00:24.945Z,83.50
2017-09-03T23:02:53.219Z,83.80
2017-09-03T23:05:21.495Z,83.50
2017-09-03T23:07:49.931Z,83.70
2017-09-03T23:10:18.199Z,83.30
2017-09-03T23:12:47.237Z,82.90
2017-09-03T23:15:15.528Z,82.90
2017-09-03T23:17:43.795Z,82.70
2017-09-03T23:20:12.104Z,83.60
2017-09-03T23:22:40.366Z,84.30
2017-09-03T23:25:08.633Z,84.90
2017-09-03T23:27:36.899Z,84.80
2017-09-03T23:30:05.160Z,85.10
2017-09-03T23:32:33.483Z,85.40
2017-09-03T23:35:01.765Z,85.00
2017-09-03T23:37:30.040Z,84.80
2017-09-03T23:39:58.315Z,84.20
2017-09-03T23:42:26.590Z,84.00
2017-09-03T23:44:54.908Z,84.70
2017-09-03T23:47:23.168Z,84.70
2017-09-03T23:49:51.439Z,84.60
2017-09-03T23:52:19.719Z,84.50
2017-09-03T23:54:47.992Z,84.50
2017-09-03T23:57:16.294Z,84.70
2017-09-03T23:59:44.573Z,84.50
